sensor_id;sensor_type;location;lat;lon;timestamp;temperature;humidity
2409;DHT22;8463;48.094;7.970;2023-03-05T00:01:18;1.40;40.50
2409;DHT22;8463;48.094;7.970;2023-03-05T00:03:44;1.10;40.50
2409;DHT22;8463;48.094;7.970;2023-03-05T00:06:11;1.10;40.30
2409;DHT22;8463;48.094;7.970;2023-03-05T00:08:37;1.00;40.20
2409;DHT22;8463;48.094;7.970;2023-03-05T00:11:05;1.10;39.90
2409;DHT22;8463;48.094;7.970;2023-03-05T00:13:33;1.10;39.70
2409;DHT22;8463;48.094;7.970;2023-03-05T00:16:02;0.80;42.40
2409;DHT22;8463;48.094;7.970;2023-03-05T00:18:30;0.80;42.60
2409;DHT22;8463;48.094;7.970;2023-03-05T00:20:55;0.80;43.50
2409;DHT22;8463;48.094;7.970;2023-03-05T00:23:21;0.80;44.40
2409;DHT22;8463;48.094;7.970;2023-03-05T00:25:47;0.80;44.30
2409;DHT22;8463;48.094;7.970;2023-03-05T00:28:13;0.80;42.70
2409;DHT22;8463;48.094;7.970;2023-03-05T00:30:38;0.60;42.40
2409;DHT22;8463;48.094;7.970;2023-03-05T00:33:05;0.50;46.00
2409;DHT22;8463;48.094;7.970;2023-03-05T00:35:30;0.50;47.40
2409;DHT22;8463;48.094;7.970;2023-03-05T00:37:56;0.70;47.30
2409;DHT22;8463;48.094;7.970;2023-03-05T00:40:22;0.70;45.80
2409;DHT22;8463;48.094;7.970;2023-03-05T00:42:48;0.70;45.10
2409;DHT22;8463;48.094;7.970;2023-03-05T00:45:13;0.70;44.80
2409;DHT22;8463;48.094;7.970;2023-03-05T00:47:39;0.70;45.70
2409;DHT22;8463;48.094;7.970;2023-03-05T00:50:06;0.70;45.90
2409;DHT22;8463;48.094;7.970;2023-03-05T00:52:32;0.80;45.10
2409;DHT22;8463;48.094;7.970;2023-03-05T00:54:57;0.80;44.50
2409;DHT22;8463;48.094;7.970;2023-03-05T00:57:23;0.70;44.30
2409;DHT22;8463;48.094;7.970;2023-03-05T00:59:49;0.70;44.30
2409;DHT22;8463;48.094;7.970;2023-03-05T01:02:14;0.70;44.00
2409;DHT22;8463;48.094;7.970;2023-03-05T01:04:40;0.60;44.10
2409;DHT22;8463;48.094;7.970;2023-03-05T01:07:07;0.50;44.10
2409;DHT22;8463;48.094;7.970;2023-03-05T01:09:33;0.50;44.60
2409;DHT22;8463;48.094;7.970;2023-03-05T01:11:59;0.50;44.10
2409;DHT22;8463;48.094;7.970;2023-03-05T01:14:24;0.50;45.10
2409;DHT22;8463;48.094;7.970;2023-03-05T01:16:52;0.50;45.00
2409;DHT22;8463;48.094;7.970;2023-03-05T01:19:18;0.50;44.10
2409;DHT22;8463;48.094;7.970;2023-03-05T01:21:44;0.50;45.00
2409;DHT22;8463;48.094;7.970;2023-03-05T01:24:09;0.50;44.10
2409;DHT22;8463;48.094;7.970;2023-03-05T01:26:35;0.50;44.10
2409;DHT22;8463;48.094;7.970;2023-03-05T01:29:01;0.40;44.20
2409;DHT22;8463;48.094;7.970;2023-03-05T01:31:26;0.40;44.80
2409;DHT22;8463;48.094;7.970;2023-03-05T01:33:55;0.50;44.90
2409;DHT22;8463;48.094;7.970;2023-03-05T01:36:21;0.40;44.00
2409;DHT22;8463;48.094;7.970;2023-03-05T01:38:49;0.40;45.10
2409;DHT22;8463;48.094;7.970;2023-03-05T01:41:16;0.40;45.30
2409;DHT22;8463;48.094;7.970;2023-03-05T01:43:44;0.40;45.50
2409;DHT22;8463;48.094;7.970;2023-03-05T01:51:50;0.50;44.60
2409;DHT22;8463;48.094;7.970;2023-03-05T01:54:20;0.50;44.10
2409;DHT22;8463;48.094;7.970;2023-03-05T01:56:48;0.50;44.10
2409;DHT22;8463;48.094;7.970;2023-03-05T01:59:16;0.50;44.10
2409;DHT22;8463;48.094;7.970;2023-03-05T02:01:45;0.40;44.10
2409;DHT22;8463;48.094;7.970;2023-03-05T02:04:16;0.40;44.00
2409;DHT22;8463;48.094;7.970;2023-03-05T02:06:44;0.40;44.00
2409;DHT22;8463;48.094;7.970;2023-03-05T02:09:12;0.40;44.60
2409;DHT22;8463;48.094;7.970;2023-03-05T02:11:40;0.30;44.00
2409;DHT22;8463;48.094;7.970;2023-03-05T02:14:07;0.30;44.60
2409;DHT22;8463;48.094;7.970;2023-03-05T02:16:33;0.30;45.60
2409;DHT22;8463;48.094;7.970;2023-03-05T02:19:11;0.20;45.90
2409;DHT22;8463;48.094;7.970;2023-03-05T02:21:43;0.20;45.90
2409;DHT22;8463;48.094;7.970;2023-03-05T02:24:14;0.10;46.20
2409;DHT22;8463;48.094;7.970;2023-03-05T02:26:41;0.20;47.10
2409;DHT22;8463;48.094;7.970;2023-03-05T02:29:13;0.20;46.90
2409;DHT22;8463;48.094;7.970;2023-03-05T02:31:39;0.30;47.60
2409;DHT22;8463;48.094;7.970;2023-03-05T02:34:05;0.30;46.50
2409;DHT22;8463;48.094;7.970;2023-03-05T02:36:31;0.40;46.30
2409;DHT22;8463;48.094;7.970;2023-03-05T02:38:57;0.40;46.00
2409;DHT22;8463;48.094;7.970;2023-03-05T02:41:25;0.40;46.00
2409;DHT22;8463;48.094;7.970;2023-03-05T02:43:53;0.40;46.40
2409;DHT22;8463;48.094;7.970;2023-03-05T02:46:18;0.20;45.30
2409;DHT22;8463;48.094;7.970;2023-03-05T02:48:44;0.20;47.70
2409;DHT22;8463;48.094;7.970;2023-03-05T02:51:10;0.20;48.30
2409;DHT22;8463;48.094;7.970;2023-03-05T02:53:35;0.30;47.70
2409;DHT22;8463;48.094;7.970;2023-03-05T02:56:01;0.30;47.70
2409;DHT22;8463;48.094;7.970;2023-03-05T02:58:27;0.40;47.80
2409;DHT22;8463;48.094;7.970;2023-03-05T03:00:53;0.50;47.00
2409;DHT22;8463;48.094;7.970;2023-03-05T03:03:21;0.50;46.90
2409;DHT22;8463;48.094;7.970;2023-03-05T03:05:46;0.60;46.60
2409;DHT22;8463;48.094;7.970;2023-03-05T03:08:12;0.60;46.40
2409;DHT22;8463;48.094;7.970;2023-03-05T03:10:39;0.60;45.70
2409;DHT22;8463;48.094;7.970;2023-03-05T03:13:05;0.60;45.90
2409;DHT22;8463;48.094;7.970;2023-03-05T03:15:30;0.60;45.80
2409;DHT22;8463;48.094;7.970;2023-03-05T03:17:58;0.60;45.30
2409;DHT22;8463;48.094;7.970;2023-03-05T03:20:24;0.60;45.20
2409;DHT22;8463;48.094;7.970;2023-03-05T03:22:50;0.70;45.20
2409;DHT22;8463;48.094;7.970;2023-03-05T03:25:18;0.70;45.50
2409;DHT22;8463;48.094;7.970;2023-03-05T03:27:44;0.70;45.60
2409;DHT22;8463;48.094;7.970;2023-03-05T03:30:13;0.70;45.40
2409;DHT22;8463;48.094;7.970;2023-03-05T03:32:39;0.70;45.40
2409;DHT22;8463;48.094;7.970;2023-03-05T03:35:05;0.70;45.40
2409;DHT22;8463;48.094;7.970;2023-03-05T03:37:31;0.70;45.40
2409;DHT22;8463;48.094;7.970;2023-03-05T03:39:57;0.70;44.90
2409;DHT22;8463;48.094;7.970;2023-03-05T03:42:23;0.70;45.40
2409;DHT22;8463;48.094;7.970;2023-03-05T03:44:50;0.80;45.90
2409;DHT22;8463;48.094;7.970;2023-03-05T03:47:16;0.80;45.40
2409;DHT22;8463;48.094;7.970;2023-03-05T03:49:41;0.80;45.20
2409;DHT22;8463;48.094;7.970;2023-03-05T03:52:07;0.80;45.10
2409;DHT22;8463;48.094;7.970;2023-03-05T03:54:33;0.80;45.20
2409;DHT22;8463;48.094;7.970;2023-03-05T03:56:58;0.80;45.30
2409;DHT22;8463;48.094;7.970;2023-03-05T03:59:26;0.80;45.50
2409;DHT22;8463;48.094;7.970;2023-03-05T04:01:52;0.90;45.90
2409;DHT22;8463;48.094;7.970;2023-03-05T04:04:17;0.90;45.80
2409;DHT22;8463;48.094;7.970;2023-03-05T04:06:43;0.90;45.80
2409;DHT22;8463;48.094;7.970;2023-03-05T04:09:09;0.90;46.10
2409;DHT22;8463;48.094;7.970;2023-03-05T04:11:35;1.00;46.10
2409;DHT22;8463;48.094;7.970;2023-03-05T04:14:02;1.00;46.70
2409;DHT22;8463;48.094;7.970;2023-03-05T04:16:27;1.00;46.60
2409;DHT22;8463;48.094;7.970;2023-03-05T04:18:53;0.90;46.50
2409;DHT22;8463;48.094;7.970;2023-03-05T04:21:19;0.90;46.70
2409;DHT22;8463;48.094;7.970;2023-03-05T04:23:45;0.90;46.90
2409;DHT22;8463;48.094;7.970;2023-03-05T04:26:10;0.90;46.90
2409;DHT22;8463;48.094;7.970;2023-03-05T04:28:36;0.90;46.20
2409;DHT22;8463;48.094;7.970;2023-03-05T04:31:02;0.90;47.00
2409;DHT22;8463;48.094;7.970;2023-03-05T04:33:28;0.80;47.40
2409;DHT22;8463;48.094;7.970;2023-03-05T04:35:54;0.90;47.90
2409;DHT22;8463;48.094;7.970;2023-03-05T04:38:20;0.90;48.00
2409;DHT22;8463;48.094;7.970;2023-03-05T04:40:46;0.90;48.00
2409;DHT22;8463;48.094;7.970;2023-03-05T04:43:12;0.90;48.00
2409;DHT22;8463;48.094;7.970;2023-03-05T04:45:42;1.00;48.00
2409;DHT22;8463;48.094;7.970;2023-03-05T04:48:08;1.00;47.50
2409;DHT22;8463;48.094;7.970;2023-03-05T04:50:35;1.00;47.50
2409;DHT22;8463;48.094;7.970;2023-03-05T04:53:01;1.00;47.50
2409;DHT22;8463;48.094;7.970;2023-03-05T04:55:27;1.00;47.90
2409;DHT22;8463;48.094;7.970;2023-03-05T04:57:53;1.00;47.80
2409;DHT22;8463;48.094;7.970;2023-03-05T05:00:18;1.00;47.80
2409;DHT22;8463;48.094;7.970;2023-03-05T05:02:47;1.00;48.00
2409;DHT22;8463;48.094;7.970;2023-03-05T05:05:16;1.00;47.80
2409;DHT22;8463;48.094;7.970;2023-03-05T05:07:42;1.10;47.50
2409;DHT22;8463;48.094;7.970;2023-03-05T05:10:08;1.10;47.10
2409;DHT22;8463;48.094;7.970;2023-03-05T05:12:34;1.20;47.00
2409;DHT22;8463;48.094;7.970;2023-03-05T05:15:01;1.10;46.50
2409;DHT22;8463;48.094;7.970;2023-03-05T05:17:26;1.10;47.50
2409;DHT22;8463;48.094;7.970;2023-03-05T05:19:55;1.10;47.60
2409;DHT22;8463;48.094;7.970;2023-03-05T05:22:21;1.10;48.00
2409;DHT22;8463;48.094;7.970;2023-03-05T05:24:47;1.20;48.30
2409;DHT22;8463;48.094;7.970;2023-03-05T05:27:13;1.20;48.10
2409;DHT22;8463;48.094;7.970;2023-03-05T05:29:38;1.20;47.60
2409;DHT22;8463;48.094;7.970;2023-03-05T05:32:04;2.60;48.90
2409;DHT22;8463;48.094;7.970;2023-03-05T05:34:30;1.30;47.70
2409;DHT22;8463;48.094;7.970;2023-03-05T05:36:55;1.30;47.70
2409;DHT22;8463;48.094;7.970;2023-03-05T05:39:21;1.30;47.90
2409;DHT22;8463;48.094;7.970;2023-03-05T05:41:50;1.30;48.00
2409;DHT22;8463;48.094;7.970;2023-03-05T05:44:16;1.30;48.00
2409;DHT22;8463;48.094;7.970;2023-03-05T05:46:42;1.30;48.00
2409;DHT22;8463;48.094;7.970;2023-03-05T05:49:07;1.30;48.50
2409;DHT22;8463;48.094;7.970;2023-03-05T05:51:33;1.30;48.40
2409;DHT22;8463;48.094;7.970;2023-03-05T05:54:03;1.30;48.60
2409;DHT22;8463;48.094;7.970;2023-03-05T05:56:29;1.30;48.80
2409;DHT22;8463;48.094;7.970;2023-03-05T05:58:54;1.30;48.60
2409;DHT22;8463;48.094;7.970;2023-03-05T06:01:27;1.30;48.50
2409;DHT22;8463;48.094;7.970;2023-03-05T06:03:54;1.40;48.20
2409;DHT22;8463;48.094;7.970;2023-03-05T06:06:22;1.40;47.90
2409;DHT22;8463;48.094;7.970;2023-03-05T06:08:50;1.40;47.90
2409;DHT22;8463;48.094;7.970;2023-03-05T06:11:17;1.40;48.30
2409;DHT22;8463;48.094;7.970;2023-03-05T06:13:43;1.50;48.30
2409;DHT22;8463;48.094;7.970;2023-03-05T06:16:12;1.50;48.20
2409;DHT22;8463;48.094;7.970;2023-03-05T06:18:38;1.40;48.00
2409;DHT22;8463;48.094;7.970;2023-03-05T06:21:06;1.40;48.50
2409;DHT22;8463;48.094;7.970;2023-03-05T06:23:33;1.40;48.10
2409;DHT22;8463;48.094;7.970;2023-03-05T06:26:01;1.40;48.10
2409;DHT22;8463;48.094;7.970;2023-03-05T06:28:27;1.40;48.10
2409;DHT22;8463;48.094;7.970;2023-03-05T06:31:04;1.40;48.40
2409;DHT22;8463;48.094;7.970;2023-03-05T06:33:31;1.50;48.80
2409;DHT22;8463;48.094;7.970;2023-03-05T06:35:56;1.50;49.00
2409;DHT22;8463;48.094;7.970;2023-03-05T06:38:22;1.50;49.30
2409;DHT22;8463;48.094;7.970;2023-03-05T06:40:48;1.50;49.50
2409;DHT22;8463;48.094;7.970;2023-03-05T06:43:13;1.50;49.40
2409;DHT22;8463;48.094;7.970;2023-03-05T06:45:39;1.60;49.10
2409;DHT22;8463;48.094;7.970;2023-03-05T06:48:05;1.60;48.70
2409;DHT22;8463;48.094;7.970;2023-03-05T06:50:36;1.60;48.30
2409;DHT22;8463;48.094;7.970;2023-03-05T06:53:02;1.60;47.90
2409;DHT22;8463;48.094;7.970;2023-03-05T06:55:28;1.60;47.90
2409;DHT22;8463;48.094;7.970;2023-03-05T06:57:54;1.60;48.00
2409;DHT22;8463;48.094;7.970;2023-03-05T07:00:20;1.60;47.80
2409;DHT22;8463;48.094;7.970;2023-03-05T07:02:46;1.70;47.80
2409;DHT22;8463;48.094;7.970;2023-03-05T07:05:12;1.70;47.70
2409;DHT22;8463;48.094;7.970;2023-03-05T07:07:37;1.70;48.00
2409;DHT22;8463;48.094;7.970;2023-03-05T07:10:04;1.70;48.10
2409;DHT22;8463;48.094;7.970;2023-03-05T07:12:32;1.70;49.30
2409;DHT22;8463;48.094;7.970;2023-03-05T07:14:58;1.70;48.70
2409;DHT22;8463;48.094;7.970;2023-03-05T07:17:24;1.70;48.70
2409;DHT22;8463;48.094;7.970;2023-03-05T07:19:49;1.70;48.30
2409;DHT22;8463;48.094;7.970;2023-03-05T07:22:15;2.50;68.20
2409;DHT22;8463;48.094;7.970;2023-03-05T07:24:40;3.30;72.00
2409;DHT22;8463;48.094;7.970;2023-03-05T07:27:06;4.50;74.00
2409;DHT22;8463;48.094;7.970;2023-03-05T07:29:32;4.80;68.20
2409;DHT22;8463;48.094;7.970;2023-03-05T07:31:57;4.30;58.10
2409;DHT22;8463;48.094;7.970;2023-03-05T07:34:23;3.90;52.50
2409;DHT22;8463;48.094;7.970;2023-03-05T07:36:49;3.60;48.50
2409;DHT22;8463;48.094;7.970;2023-03-05T07:39:15;3.30;46.70
2409;DHT22;8463;48.094;7.970;2023-03-05T07:41:46;3.00;45.50
2409;DHT22;8463;48.094;7.970;2023-03-05T07:44:14;2.80;46.00
2409;DHT22;8463;48.094;7.970;2023-03-05T07:46:40;2.60;46.00
2409;DHT22;8463;48.094;7.970;2023-03-05T07:49:06;2.50;46.00
2409;DHT22;8463;48.094;7.970;2023-03-05T07:51:31;2.40;46.40
2409;DHT22;8463;48.094;7.970;2023-03-05T07:53:58;2.40;47.50
2409;DHT22;8463;48.094;7.970;2023-03-05T07:58:51;2.30;47.70
2409;DHT22;8463;48.094;7.970;2023-03-05T08:01:16;2.30;48.50
2409;DHT22;8463;48.094;7.970;2023-03-05T08:03:43;2.30;48.70
2409;DHT22;8463;48.094;7.970;2023-03-05T08:06:10;2.30;48.60
2409;DHT22;8463;48.094;7.970;2023-03-05T08:08:36;2.20;48.80
2409;DHT22;8463;48.094;7.970;2023-03-05T08:11:08;2.20;49.00
2409;DHT22;8463;48.094;7.970;2023-03-05T08:13:34;2.30;49.50
2409;DHT22;8463;48.094;7.970;2023-03-05T08:16:07;2.30;49.70
2409;DHT22;8463;48.094;7.970;2023-03-05T08:18:33;2.30;49.30
2409;DHT22;8463;48.094;7.970;2023-03-05T08:20:59;2.30;49.00
2409;DHT22;8463;48.094;7.970;2023-03-05T08:23:25;2.40;48.70
2409;DHT22;8463;48.094;7.970;2023-03-05T08:25:51;2.40;48.70
2409;DHT22;8463;48.094;7.970;2023-03-05T08:28:17;2.50;48.70
2409;DHT22;8463;48.094;7.970;2023-03-05T08:30:44;2.50;48.60
2409;DHT22;8463;48.094;7.970;2023-03-05T08:33:10;2.50;48.80
2409;DHT22;8463;48.094;7.970;2023-03-05T08:35:36;2.60;48.50
2409;DHT22;8463;48.094;7.970;2023-03-05T08:38:02;2.60;48.50
2409;DHT22;8463;48.094;7.970;2023-03-05T08:40:27;2.60;48.50
2409;DHT22;8463;48.094;7.970;2023-03-05T08:42:56;2.60;48.90
2409;DHT22;8463;48.094;7.970;2023-03-05T08:45:22;2.60;48.70
2409;DHT22;8463;48.094;7.970;2023-03-05T08:47:48;2.70;48.70
2409;DHT22;8463;48.094;7.970;2023-03-05T08:50:14;2.70;48.60
2409;DHT22;8463;48.094;7.970;2023-03-05T08:52:40;2.70;48.30
2409;DHT22;8463;48.094;7.970;2023-03-05T08:55:05;2.80;48.10
2409;DHT22;8463;48.094;7.970;2023-03-05T08:57:31;2.80;48.30
2409;DHT22;8463;48.094;7.970;2023-03-05T08:59:57;2.80;48.70
2409;DHT22;8463;48.094;7.970;2023-03-05T09:02:22;2.90;48.70
2409;DHT22;8463;48.094;7.970;2023-03-05T09:04:48;2.90;48.20
2409;DHT22;8463;48.094;7.970;2023-03-05T09:07:14;3.00;48.40
2409;DHT22;8463;48.094;7.970;2023-03-05T09:09:39;3.00;48.20
2409;DHT22;8463;48.094;7.970;2023-03-05T09:12:05;3.10;47.20
2409;DHT22;8463;48.094;7.970;2023-03-05T09:14:31;3.10;46.60
2409;DHT22;8463;48.094;7.970;2023-03-05T09:16:57;3.20;46.60
2409;DHT22;8463;48.094;7.970;2023-03-05T09:19:23;3.20;46.60
2409;DHT22;8463;48.094;7.970;2023-03-05T09:21:49;3.30;45.50
2409;DHT22;8463;48.094;7.970;2023-03-05T09:24:14;3.30;45.50
2409;DHT22;8463;48.094;7.970;2023-03-05T09:26:42;3.30;44.70
2409;DHT22;8463;48.094;7.970;2023-03-05T09:29:08;3.40;44.30
2409;DHT22;8463;48.094;7.970;2023-03-05T09:31:35;3.50;44.10
2409;DHT22;8463;48.094;7.970;2023-03-05T09:34:01;3.50;44.30
2409;DHT22;8463;48.094;7.970;2023-03-05T09:36:28;3.60;44.80
2409;DHT22;8463;48.094;7.970;2023-03-05T09:38:57;3.60;43.50
2409;DHT22;8463;48.094;7.970;2023-03-05T09:52:27;4.00;40.00
2409;DHT22;8463;48.094;7.970;2023-03-05T09:54:57;4.10;39.00
2409;DHT22;8463;48.094;7.970;2023-03-05T09:57:44;4.10;37.20
2409;DHT22;8463;48.094;7.970;2023-03-05T10:00:22;4.20;35.60
2409;DHT22;8463;48.094;7.970;2023-03-05T10:02:54;4.20;34.40
2409;DHT22;8463;48.094;7.970;2023-03-05T10:05:44;4.30;34.70
2409;DHT22;8463;48.094;7.970;2023-03-05T10:08:12;4.30;33.80
2409;DHT22;8463;48.094;7.970;2023-03-05T10:10:47;4.40;33.50
2409;DHT22;8463;48.094;7.970;2023-03-05T10:13:32;4.50;33.60
2409;DHT22;8463;48.094;7.970;2023-03-05T10:21:49;4.40;32.30
2409;DHT22;8463;48.094;7.970;2023-03-05T10:24:45;4.50;31.90
2409;DHT22;8463;48.094;7.970;2023-03-05T10:27:41;4.60;33.00
2409;DHT22;8463;48.094;7.970;2023-03-05T10:46:20;4.80;28.80
2409;DHT22;8463;48.094;7.970;2023-03-05T10:48:58;4.80;28.30
2409;DHT22;8463;48.094;7.970;2023-03-05T10:56:40;4.80;30.00
2409;DHT22;8463;48.094;7.970;2023-03-05T10:59:08;5.00;28.80
2409;DHT22;8463;48.094;7.970;2023-03-05T11:01:34;5.00;28.80
2409;DHT22;8463;48.094;7.970;2023-03-05T11:04:04;5.10;29.50
2409;DHT22;8463;48.094;7.970;2023-03-05T11:06:38;5.10;28.10
2409;DHT22;8463;48.094;7.970;2023-03-05T11:09:24;5.10;29.60
2409;DHT22;8463;48.094;7.970;2023-03-05T11:12:19;5.20;28.50
2409;DHT22;8463;48.094;7.970;2023-03-05T11:17:37;5.30;29.30
2409;DHT22;8463;48.094;7.970;2023-03-05T11:20:32;5.40;29.10
2409;DHT22;8463;48.094;7.970;2023-03-05T11:23:25;5.50;27.60
2409;DHT22;8463;48.094;7.970;2023-03-05T11:25:58;5.50;27.20
2409;DHT22;8463;48.094;7.970;2023-03-05T11:28:37;5.60;28.90
2409;DHT22;8463;48.094;7.970;2023-03-05T11:31:11;5.70;28.50
2409;DHT22;8463;48.094;7.970;2023-03-05T11:36:35;5.70;27.10
2409;DHT22;8463;48.094;7.970;2023-03-05T11:41:37;5.60;27.40
2409;DHT22;8463;48.094;7.970;2023-03-05T11:44:10;5.60;27.70
2409;DHT22;8463;48.094;7.970;2023-03-05T11:49:28;5.30;29.00
2409;DHT22;8463;48.094;7.970;2023-03-05T11:52:26;5.30;29.30
2409;DHT22;8463;48.094;7.970;2023-03-05T11:55:11;5.40;30.00
2409;DHT22;8463;48.094;7.970;2023-03-05T11:57:56;5.40;30.50
2409;DHT22;8463;48.094;7.970;2023-03-05T12:00:28;5.50;30.10
2409;DHT22;8463;48.094;7.970;2023-03-05T12:02:56;5.60;29.20
2409;DHT22;8463;48.094;7.970;2023-03-05T12:05:23;5.60;28.50
2409;DHT22;8463;48.094;7.970;2023-03-05T12:07:52;5.60;28.70
2409;DHT22;8463;48.094;7.970;2023-03-05T12:10:22;5.60;28.60
2409;DHT22;8463;48.094;7.970;2023-03-05T12:21:07;5.90;28.10
2409;DHT22;8463;48.094;7.970;2023-03-05T12:23:56;5.90;27.90
2409;DHT22;8463;48.094;7.970;2023-03-05T12:35:23;6.50;23.70
2409;DHT22;8463;48.094;7.970;2023-03-05T12:40:32;6.70;24.10
2409;DHT22;8463;48.094;7.970;2023-03-05T12:43:05;6.80;24.20
2409;DHT22;8463;48.094;7.970;2023-03-05T12:45:47;7.10;22.60
2409;DHT22;8463;48.094;7.970;2023-03-05T12:53:18;7.40;20.00
2409;DHT22;8463;48.094;7.970;2023-03-05T12:58:29;7.60;19.90
2409;DHT22;8463;48.094;7.970;2023-03-05T13:03:33;7.70;17.80
2409;DHT22;8463;48.094;7.970;2023-03-05T13:06:00;7.70;18.40
2409;DHT22;8463;48.094;7.970;2023-03-05T13:08:34;7.80;18.40
2409;DHT22;8463;48.094;7.970;2023-03-05T13:11:01;7.90;17.50
2409;DHT22;8463;48.094;7.970;2023-03-05T13:13:34;7.90;16.70
2409;DHT22;8463;48.094;7.970;2023-03-05T13:16:01;7.80;14.00
2409;DHT22;8463;48.094;7.970;2023-03-05T13:18:31;7.80;14.60
2409;DHT22;8463;48.094;7.970;2023-03-05T13:21:10;8.00;9.40
2409;DHT22;8463;48.094;7.970;2023-03-05T13:23:37;8.00;6.10
2409;DHT22;8463;48.094;7.970;2023-03-05T13:26:18;8.00;6.20
2409;DHT22;8463;48.094;7.970;2023-03-05T13:29:05;7.70;4.00
2409;DHT22;8463;48.094;7.970;2023-03-05T13:31:38;7.60;5.70
2409;DHT22;8463;48.094;7.970;2023-03-05T13:37:06;7.70;5.80
2409;DHT22;8463;48.094;7.970;2023-03-05T13:40:03;7.70;5.50
2409;DHT22;8463;48.094;7.970;2023-03-05T13:42:34;7.70;5.10
2409;DHT22;8463;48.094;7.970;2023-03-05T13:45:04;7.70;6.20
2409;DHT22;8463;48.094;7.970;2023-03-05T13:47:32;7.70;6.60
2409;DHT22;8463;48.094;7.970;2023-03-05T13:50:04;7.70;9.20
2409;DHT22;8463;48.094;7.970;2023-03-05T13:52:37;7.70;7.60
2409;DHT22;8463;48.094;7.970;2023-03-05T13:55:14;7.70;3.00
2409;DHT22;8463;48.094;7.970;2023-03-05T13:57:43;7.70;3.70
2409;DHT22;8463;48.094;7.970;2023-03-05T14:00:35;7.70;3.30
2409;DHT22;8463;48.094;7.970;2023-03-05T14:03:20;7.70;2.60
2409;DHT22;8463;48.094;7.970;2023-03-05T14:05:47;7.60;3.20
2409;DHT22;8463;48.094;7.970;2023-03-05T14:08:25;7.60;3.90
2409;DHT22;8463;48.094;7.970;2023-03-05T14:10:52;7.50;2.20
2409;DHT22;8463;48.094;7.970;2023-03-05T14:13:22;7.40;2.40
2409;DHT22;8463;48.094;7.970;2023-03-05T14:16:08;7.40;1.00
2409;DHT22;8463;48.094;7.970;2023-03-05T14:18:35;7.40;1.50
2409;DHT22;8463;48.094;7.970;2023-03-05T14:23:37;7.30;1.40
2409;DHT22;8463;48.094;7.970;2023-03-05T14:28:52;7.40;1.50
2409;DHT22;8463;48.094;7.970;2023-03-05T14:31:19;7.20;1.00
2409;DHT22;8463;48.094;7.970;2023-03-05T14:33:45;7.10;1.00
2409;DHT22;8463;48.094;7.970;2023-03-05T14:36:11;7.10;1.00
2409;DHT22;8463;48.094;7.970;2023-03-05T14:38:40;7.10;1.00
2409;DHT22;8463;48.094;7.970;2023-03-05T14:41:35;7.10;1.00
2409;DHT22;8463;48.094;7.970;2023-03-05T14:44:04;7.10;1.00
2409;DHT22;8463;48.094;7.970;2023-03-05T14:46:33;7.10;1.00
2409;DHT22;8463;48.094;7.970;2023-03-05T14:48:58;7.10;1.00
2409;DHT22;8463;48.094;7.970;2023-03-05T14:51:24;7.10;1.00
2409;DHT22;8463;48.094;7.970;2023-03-05T14:53:50;7.10;1.00
2409;DHT22;8463;48.094;7.970;2023-03-05T14:56:24;7.00;1.00
2409;DHT22;8463;48.094;7.970;2023-03-05T14:58:51;7.00;1.00
2409;DHT22;8463;48.094;7.970;2023-03-05T15:01:17;7.00;1.20
2409;DHT22;8463;48.094;7.970;2023-03-05T15:03:43;7.00;1.10
2409;DHT22;8463;48.094;7.970;2023-03-05T15:08:44;6.90;1.00
2409;DHT22;8463;48.094;7.970;2023-03-05T15:11:12;6.90;1.00
2409;DHT22;8463;48.094;7.970;2023-03-05T15:13:38;6.90;1.00
2409;DHT22;8463;48.094;7.970;2023-03-05T15:16:07;7.00;1.00
2409;DHT22;8463;48.094;7.970;2023-03-05T15:18:36;7.00;1.00
2409;DHT22;8463;48.094;7.970;2023-03-05T15:21:02;7.00;1.00
2409;DHT22;8463;48.094;7.970;2023-03-05T15:23:28;7.00;1.00
2409;DHT22;8463;48.094;7.970;2023-03-05T15:25:59;6.90;1.00
2409;DHT22;8463;48.094;7.970;2023-03-05T15:28:30;6.90;1.00
2409;DHT22;8463;48.094;7.970;2023-03-05T15:30:55;6.90;1.00
2409;DHT22;8463;48.094;7.970;2023-03-05T15:33:21;6.90;1.00
2409;DHT22;8463;48.094;7.970;2023-03-05T15:35:47;7.00;1.00
2409;DHT22;8463;48.094;7.970;2023-03-05T15:38:13;7.00;1.00
2409;DHT22;8463;48.094;7.970;2023-03-05T15:40:40;7.10;1.00
2409;DHT22;8463;48.094;7.970;2023-03-05T15:43:10;7.10;1.00
2409;DHT22;8463;48.094;7.970;2023-03-05T15:45:38;7.00;1.00
2409;DHT22;8463;48.094;7.970;2023-03-05T15:48:04;7.10;1.00
2409;DHT22;8463;48.094;7.970;2023-03-05T15:50:30;7.10;1.00
2409;DHT22;8463;48.094;7.970;2023-03-05T15:52:56;7.00;1.00
2409;DHT22;8463;48.094;7.970;2023-03-05T15:55:22;7.00;1.00
2409;DHT22;8463;48.094;7.970;2023-03-05T15:57:49;7.00;1.00
2409;DHT22;8463;48.094;7.970;2023-03-05T16:00:19;6.90;1.00
2409;DHT22;8463;48.094;7.970;2023-03-05T16:02:44;7.00;1.00
2409;DHT22;8463;48.094;7.970;2023-03-05T16:05:10;6.90;1.00
2409;DHT22;8463;48.094;7.970;2023-03-05T16:07:38;6.80;2.10
2409;DHT22;8463;48.094;7.970;2023-03-05T16:10:06;6.80;3.30
2409;DHT22;8463;48.094;7.970;2023-03-05T16:12:35;6.70;3.80
2409;DHT22;8463;48.094;7.970;2023-03-05T16:15:07;6.70;4.30
2409;DHT22;8463;48.094;7.970;2023-03-05T16:17:33;6.60;3.40
2409;DHT22;8463;48.094;7.970;2023-03-05T16:19:58;6.60;5.40
2409;DHT22;8463;48.094;7.970;2023-03-05T16:22:24;6.50;7.10
2409;DHT22;8463;48.094;7.970;2023-03-05T16:24:50;6.50;8.30
2409;DHT22;8463;48.094;7.970;2023-03-05T16:27:16;6.50;8.80
2409;DHT22;8463;48.094;7.970;2023-03-05T16:29:41;6.50;9.70
2409;DHT22;8463;48.094;7.970;2023-03-05T16:32:07;6.50;9.40
2409;DHT22;8463;48.094;7.970;2023-03-05T16:34:33;6.40;9.20
2409;DHT22;8463;48.094;7.970;2023-03-05T16:36:59;6.50;7.80
2409;DHT22;8463;48.094;7.970;2023-03-05T16:39:28;6.50;8.30
2409;DHT22;8463;48.094;7.970;2023-03-05T16:41:56;6.50;8.60
2409;DHT22;8463;48.094;7.970;2023-03-05T16:44:22;6.40;7.60
2409;DHT22;8463;48.094;7.970;2023-03-05T16:46:48;6.50;8.30
2409;DHT22;8463;48.094;7.970;2023-03-05T16:49:18;6.40;8.30
2409;DHT22;8463;48.094;7.970;2023-03-05T16:51:44;6.40;8.30
2409;DHT22;8463;48.094;7.970;2023-03-05T16:56:36;6.50;9.10
2409;DHT22;8463;48.094;7.970;2023-03-05T16:59:01;6.40;8.60
2409;DHT22;8463;48.094;7.970;2023-03-05T17:01:27;6.40;8.30
2409;DHT22;8463;48.094;7.970;2023-03-05T17:03:56;6.40;8.70
2409;DHT22;8463;48.094;7.970;2023-03-05T17:06:26;6.30;9.20
2409;DHT22;8463;48.094;7.970;2023-03-05T17:08:52;6.40;9.80
2409;DHT22;8463;48.094;7.970;2023-03-05T17:11:19;6.40;10.00
2409;DHT22;8463;48.094;7.970;2023-03-05T17:13:45;6.30;10.40
2409;DHT22;8463;48.094;7.970;2023-03-05T17:16:13;6.30;11.10
2409;DHT22;8463;48.094;7.970;2023-03-05T17:18:39;6.30;11.60
2409;DHT22;8463;48.094;7.970;2023-03-05T17:21:06;6.30;12.00
2409;DHT22;8463;48.094;7.970;2023-03-05T17:23:33;6.20;13.40
2409;DHT22;8463;48.094;7.970;2023-03-05T17:26:05;6.90;14.20
2409;DHT22;8463;48.094;7.970;2023-03-05T17:28:31;6.20;13.90
2409;DHT22;8463;48.094;7.970;2023-03-05T17:30:57;6.10;14.30
2409;DHT22;8463;48.094;7.970;2023-03-05T17:33:31;6.10;14.40
2409;DHT22;8463;48.094;7.970;2023-03-05T17:35:58;6.10;14.90
2409;DHT22;8463;48.094;7.970;2023-03-05T17:38:24;6.10;15.30
2409;DHT22;8463;48.094;7.970;2023-03-05T17:40:50;6.00;14.60
2409;DHT22;8463;48.094;7.970;2023-03-05T17:43:16;6.10;14.90
2409;DHT22;8463;48.094;7.970;2023-03-05T17:45:42;6.00;15.10
2409;DHT22;8463;48.094;7.970;2023-03-05T17:48:09;6.00;15.70
2409;DHT22;8463;48.094;7.970;2023-03-05T17:50:35;6.10;17.00
2409;DHT22;8463;48.094;7.970;2023-03-05T17:53:03;6.10;18.30
2409;DHT22;8463;48.094;7.970;2023-03-05T17:55:29;6.10;16.80
2409;DHT22;8463;48.094;7.970;2023-03-05T17:57:56;6.00;17.00
2409;DHT22;8463;48.094;7.970;2023-03-05T18:00:26;5.80;18.60
2409;DHT22;8463;48.094;7.970;2023-03-05T18:02:52;5.60;19.00
2409;DHT22;8463;48.094;7.970;2023-03-05T18:05:21;5.70;19.60
2409;DHT22;8463;48.094;7.970;2023-03-05T18:07:48;5.60;20.50
2409;DHT22;8463;48.094;7.970;2023-03-05T18:10:21;5.60;21.00